N517RG MMQT-MMGL
Flight info
| Callsign | N517RG |
|---|---|
| Flight time | 0h 48m |
| Altitude | 26000 |
| Route | QET2B QET UT150 MUTEM MUTEM1B |
| Aircraft | PC12/L-SDFGRWY/S |
Departure
| Time | 2026-04-24 01:32 |
|---|---|
| Airport | Querétaro Intercontinental Airport (MMQT) |
Arrival
| Time | 2026-04-24 02:20 |
|---|---|
| Airport | Guadalajara International Airport (MMGL) |
| Time | Latitude | Longitude | Altitude | Speed | Heading |
|---|---|---|---|---|---|
| 2026-04-24 01:15 | 20.62243 | -100.18941 | 6541 ft | 0 kts | 279° |
| 2026-04-24 01:24 | 20.62245 | -100.18954 | 6566 ft | 5 kts | 275° |
| 2026-04-24 01:24 | 20.62208 | -100.18974 | 6569 ft | 9 kts | 184° |
| 2026-04-24 01:25 | 20.62144 | -100.18971 | 6571 ft | 10 kts | 128° |
| 2026-04-24 01:25 | 20.62129 | -100.18888 | 6570 ft | 13 kts | 100° |
| 2026-04-24 01:25 | 20.62109 | -100.18780 | 6570 ft | 17 kts | 102° |
| 2026-04-24 01:25 | 20.62061 | -100.18680 | 6571 ft | 16 kts | 178° |
| 2026-04-24 01:26 | 20.61955 | -100.18697 | 6572 ft | 15 kts | 173° |
| 2026-04-24 01:26 | 20.61912 | -100.18605 | 6571 ft | 16 kts | 101° |
| 2026-04-24 01:26 | 20.61897 | -100.18525 | 6571 ft | 17 kts | 101° |
| 2026-04-24 01:26 | 20.61873 | -100.18397 | 6572 ft | 18 kts | 101° |
| 2026-04-24 01:27 | 20.61848 | -100.18261 | 6573 ft | 19 kts | 101° |
| 2026-04-24 01:27 | 20.61823 | -100.18118 | 6573 ft | 20 kts | 101° |
| 2026-04-24 01:27 | 20.61796 | -100.17970 | 6574 ft | 21 kts | 101° |
| 2026-04-24 01:27 | 20.61767 | -100.17818 | 6572 ft | 21 kts | 100° |
| 2026-04-24 01:28 | 20.61721 | -100.17779 | 6573 ft | 10 kts | 264° |
| 2026-04-24 01:28 | 20.61708 | -100.17853 | 6576 ft | 10 kts | 249° |
| 2026-04-24 01:28 | 20.61704 | -100.17865 | 6575 ft | 0 kts | 249° |
| 2026-04-24 01:31 | 20.61688 | -100.17912 | 6579 ft | 11 kts | 251° |
| 2026-04-24 01:31 | 20.61661 | -100.17996 | 6580 ft | 14 kts | 251° |
| 2026-04-24 01:31 | 20.61658 | -100.18131 | 6578 ft | 30 kts | 281° |
| 2026-04-24 01:31 | 20.61736 | -100.18570 | 6582 ft | 89 kts | 281° |
| 2026-04-24 01:32 | 20.61867 | -100.19309 | 6952 ft | 111 kts | 281° |
| 2026-04-24 01:32 | 20.62016 | -100.20172 | 7461 ft | 125 kts | 281° |
| 2026-04-24 01:32 | 20.62194 | -100.21171 | 7675 ft | 150 kts | 281° |
| 2026-04-24 01:32 | 20.62407 | -100.22304 | 8033 ft | 160 kts | 278° |
| 2026-04-24 01:33 | 20.62573 | -100.23530 | 8544 ft | 169 kts | 278° |
| 2026-04-24 01:33 | 20.62776 | -100.24789 | 9060 ft | 173 kts | 281° |
| 2026-04-24 01:33 | 20.62996 | -100.26048 | 9775 ft | 172 kts | 279° |
| 2026-04-24 01:33 | 20.63219 | -100.27298 | 10373 ft | 172 kts | 280° |
| 2026-04-24 01:34 | 20.63442 | -100.28545 | 10864 ft | 175 kts | 281° |
| 2026-04-24 01:34 | 20.63676 | -100.29854 | 11360 ft | 179 kts | 281° |
| 2026-04-24 01:34 | 20.63907 | -100.31145 | 11867 ft | 182 kts | 281° |
| 2026-04-24 01:34 | 20.64148 | -100.32492 | 12403 ft | 182 kts | 282° |
| 2026-04-24 01:35 | 20.64387 | -100.33825 | 12893 ft | 185 kts | 282° |
| 2026-04-24 01:35 | 20.64629 | -100.35179 | 13435 ft | 185 kts | 282° |
| 2026-04-24 01:35 | 20.64872 | -100.36536 | 13905 ft | 188 kts | 282° |
| 2026-04-24 01:35 | 20.65119 | -100.37919 | 14348 ft | 190 kts | 283° |
| 2026-04-24 01:36 | 20.65364 | -100.39290 | 14769 ft | 192 kts | 283° |
| 2026-04-24 01:36 | 20.65754 | -100.40668 | 15136 ft | 192 kts | 300° |
| 2026-04-24 01:36 | 20.66481 | -100.41872 | 15552 ft | 193 kts | 304° |
| 2026-04-24 01:36 | 20.67225 | -100.43073 | 15980 ft | 195 kts | 304° |
| 2026-04-24 01:37 | 20.67970 | -100.44288 | 16384 ft | 196 kts | 304° |
| 2026-04-24 01:37 | 20.68707 | -100.45497 | 16772 ft | 197 kts | 304° |
| 2026-04-24 01:37 | 20.69461 | -100.46732 | 17103 ft | 199 kts | 304° |
| 2026-04-24 01:37 | 20.70214 | -100.47978 | 17455 ft | 200 kts | 301° |
| 2026-04-24 01:38 | 20.70721 | -100.49394 | 17744 ft | 204 kts | 289° |
| 2026-04-24 01:38 | 20.71127 | -100.50831 | 18084 ft | 206 kts | 289° |
| 2026-04-24 01:38 | 20.71556 | -100.52292 | 18383 ft | 207 kts | 290° |
| 2026-04-24 01:38 | 20.71994 | -100.53755 | 18716 ft | 207 kts | 290° |
| 2026-04-24 01:39 | 20.72432 | -100.55223 | 19006 ft | 208 kts | 289° |
| 2026-04-24 01:39 | 20.72871 | -100.56699 | 19324 ft | 209 kts | 289° |
| 2026-04-24 01:39 | 20.73309 | -100.58178 | 19651 ft | 209 kts | 289° |
| 2026-04-24 01:39 | 20.73749 | -100.59662 | 19975 ft | 210 kts | 289° |
| 2026-04-24 01:40 | 20.74189 | -100.61154 | 20302 ft | 210 kts | 287° |
| 2026-04-24 01:40 | 20.74321 | -100.62722 | 20573 ft | 214 kts | 272° |
| 2026-04-24 01:40 | 20.74336 | -100.64314 | 20861 ft | 215 kts | 273° |
| 2026-04-24 01:40 | 20.74382 | -100.65906 | 21145 ft | 215 kts | 274° |
| 2026-04-24 01:41 | 20.74444 | -100.67506 | 21442 ft | 216 kts | 274° |
| 2026-04-24 01:41 | 20.74503 | -100.69112 | 21739 ft | 217 kts | 274° |
| 2026-04-24 01:41 | 20.74557 | -100.70723 | 22025 ft | 217 kts | 274° |
| 2026-04-24 01:41 | 20.74612 | -100.72341 | 22311 ft | 218 kts | 274° |
| 2026-04-24 01:42 | 20.74668 | -100.73963 | 22605 ft | 219 kts | 274° |
| 2026-04-24 01:42 | 20.74723 | -100.75588 | 22901 ft | 219 kts | 274° |
| 2026-04-24 01:42 | 20.74779 | -100.77217 | 23170 ft | 220 kts | 274° |
| 2026-04-24 01:42 | 20.74834 | -100.78848 | 23436 ft | 220 kts | 274° |
| 2026-04-24 01:43 | 20.74889 | -100.80489 | 23655 ft | 221 kts | 274° |
| 2026-04-24 01:43 | 20.74945 | -100.82132 | 23903 ft | 222 kts | 274° |
| 2026-04-24 01:43 | 20.75001 | -100.83781 | 24121 ft | 222 kts | 274° |
| 2026-04-24 01:43 | 20.75056 | -100.85432 | 24344 ft | 223 kts | 274° |
| 2026-04-24 01:44 | 20.75111 | -100.87091 | 24577 ft | 224 kts | 274° |
| 2026-04-24 01:44 | 20.75167 | -100.88754 | 24803 ft | 224 kts | 274° |
| 2026-04-24 01:44 | 20.75222 | -100.90421 | 25039 ft | 225 kts | 274° |
| 2026-04-24 01:44 | 20.75277 | -100.92094 | 25258 ft | 226 kts | 275° |
| 2026-04-24 01:45 | 20.75333 | -100.93769 | 25481 ft | 226 kts | 275° |
| 2026-04-24 01:45 | 20.75389 | -100.95453 | 25693 ft | 227 kts | 275° |
| 2026-04-24 01:45 | 20.75445 | -100.97157 | 25765 ft | 234 kts | 275° |
| 2026-04-24 01:45 | 20.75504 | -100.98921 | 25767 ft | 241 kts | 274° |
| 2026-04-24 01:46 | 20.75563 | -101.00729 | 25764 ft | 246 kts | 274° |
| 2026-04-24 01:46 | 20.75623 | -101.02566 | 25767 ft | 250 kts | 274° |
| 2026-04-24 01:46 | 20.75683 | -101.04434 | 25770 ft | 253 kts | 274° |
| 2026-04-24 01:46 | 20.75744 | -101.06315 | 25765 ft | 255 kts | 274° |
| 2026-04-24 01:47 | 20.75799 | -101.08029 | 25763 ft | 256 kts | 274° |
| 2026-04-24 01:47 | 20.75860 | -101.09934 | 25761 ft | 257 kts | 274° |
| 2026-04-24 01:47 | 20.75921 | -101.11846 | 25763 ft | 258 kts | 274° |
| 2026-04-24 01:47 | 20.75983 | -101.13762 | 25762 ft | 258 kts | 274° |
| 2026-04-24 01:48 | 20.76044 | -101.15681 | 25760 ft | 259 kts | 274° |
| 2026-04-24 01:48 | 20.76104 | -101.17601 | 25761 ft | 258 kts | 274° |
| 2026-04-24 01:48 | 20.76165 | -101.19519 | 25772 ft | 258 kts | 274° |
| 2026-04-24 01:48 | 20.76225 | -101.21432 | 25790 ft | 258 kts | 274° |
| 2026-04-24 01:49 | 20.76285 | -101.23344 | 25806 ft | 257 kts | 274° |
| 2026-04-24 01:49 | 20.76344 | -101.25253 | 25828 ft | 257 kts | 274° |
| 2026-04-24 01:49 | 20.76404 | -101.27160 | 25846 ft | 257 kts | 274° |
| 2026-04-24 01:49 | 20.76463 | -101.29069 | 25860 ft | 257 kts | 274° |
| 2026-04-24 01:50 | 20.76521 | -101.30952 | 25872 ft | 257 kts | 274° |
| 2026-04-24 01:50 | 20.76580 | -101.32858 | 25891 ft | 257 kts | 274° |
| 2026-04-24 01:50 | 20.76638 | -101.34764 | 25908 ft | 257 kts | 274° |
| 2026-04-24 01:50 | 20.76696 | -101.36669 | 25916 ft | 257 kts | 274° |
| 2026-04-24 01:51 | 20.76754 | -101.38576 | 25928 ft | 257 kts | 274° |
| 2026-04-24 01:51 | 20.76812 | -101.40484 | 25936 ft | 257 kts | 274° |
| 2026-04-24 01:51 | 20.76870 | -101.42391 | 25946 ft | 257 kts | 274° |
| 2026-04-24 01:51 | 20.76927 | -101.44296 | 25948 ft | 256 kts | 274° |
| 2026-04-24 01:52 | 20.76984 | -101.46201 | 25955 ft | 256 kts | 274° |
| 2026-04-24 01:52 | 20.77042 | -101.48128 | 25957 ft | 256 kts | 274° |
| 2026-04-24 01:52 | 20.77098 | -101.50030 | 25956 ft | 256 kts | 274° |
| 2026-04-24 01:52 | 20.77154 | -101.51904 | 25955 ft | 256 kts | 274° |
| 2026-04-24 01:53 | 20.77211 | -101.53824 | 25949 ft | 256 kts | 274° |
| 2026-04-24 01:53 | 20.77267 | -101.55722 | 25943 ft | 256 kts | 274° |
| 2026-04-24 01:53 | 20.77322 | -101.57620 | 25936 ft | 256 kts | 274° |
| 2026-04-24 01:53 | 20.77377 | -101.59496 | 25920 ft | 255 kts | 274° |
| 2026-04-24 01:54 | 20.77433 | -101.61419 | 25916 ft | 256 kts | 274° |
| 2026-04-24 01:54 | 20.77488 | -101.63314 | 25901 ft | 256 kts | 274° |
| 2026-04-24 01:54 | 20.77542 | -101.65187 | 25888 ft | 256 kts | 274° |
| 2026-04-24 01:54 | 20.77598 | -101.67114 | 25873 ft | 256 kts | 274° |
| 2026-04-24 01:55 | 20.77651 | -101.68989 | 25855 ft | 256 kts | 274° |
| 2026-04-24 01:55 | 20.77706 | -101.70891 | 25839 ft | 256 kts | 274° |
| 2026-04-24 01:55 | 20.77760 | -101.72791 | 25822 ft | 256 kts | 274° |
| 2026-04-24 01:55 | 20.77813 | -101.74686 | 25801 ft | 254 kts | 274° |
| 2026-04-24 01:56 | 20.77866 | -101.76568 | 25775 ft | 254 kts | 274° |
| 2026-04-24 01:56 | 20.77920 | -101.78455 | 25764 ft | 255 kts | 274° |
| 2026-04-24 01:56 | 20.77973 | -101.80347 | 25756 ft | 255 kts | 274° |
| 2026-04-24 01:56 | 20.78025 | -101.82241 | 25755 ft | 255 kts | 274° |
| 2026-04-24 01:57 | 20.78078 | -101.84138 | 25754 ft | 255 kts | 274° |
| 2026-04-24 01:57 | 20.78131 | -101.86035 | 25754 ft | 255 kts | 274° |
| 2026-04-24 01:57 | 20.78183 | -101.87933 | 25753 ft | 255 kts | 274° |
| 2026-04-24 01:57 | 20.78235 | -101.89831 | 25759 ft | 256 kts | 274° |
| 2026-04-24 01:58 | 20.78287 | -101.91728 | 25757 ft | 255 kts | 274° |
| 2026-04-24 01:58 | 20.78339 | -101.93626 | 25762 ft | 255 kts | 274° |
| 2026-04-24 01:58 | 20.78390 | -101.95520 | 25764 ft | 255 kts | 274° |
| 2026-04-24 01:58 | 20.78441 | -101.97416 | 25765 ft | 255 kts | 274° |
| 2026-04-24 01:59 | 20.78492 | -101.99314 | 25763 ft | 255 kts | 274° |
| 2026-04-24 01:59 | 20.78543 | -102.01210 | 25755 ft | 255 kts | 274° |
| 2026-04-24 01:59 | 20.78594 | -102.03105 | 25768 ft | 255 kts | 274° |
| 2026-04-24 01:59 | 20.78644 | -102.04997 | 25766 ft | 255 kts | 274° |
| 2026-04-24 02:00 | 20.78694 | -102.06891 | 25766 ft | 255 kts | 274° |
| 2026-04-24 02:00 | 20.78744 | -102.08788 | 25736 ft | 256 kts | 274° |
| 2026-04-24 02:00 | 20.78792 | -102.10728 | 25436 ft | 265 kts | 273° |
| 2026-04-24 02:00 | 20.78842 | -102.12714 | 25127 ft | 270 kts | 274° |
| 2026-04-24 02:01 | 20.78902 | -102.14737 | 24842 ft | 274 kts | 274° |
| 2026-04-24 02:01 | 20.78957 | -102.16781 | 24552 ft | 275 kts | 274° |
| 2026-04-24 02:01 | 20.79007 | -102.18785 | 24267 ft | 272 kts | 273° |
| 2026-04-24 02:01 | 20.79057 | -102.20799 | 23977 ft | 270 kts | 273° |
| 2026-04-24 02:02 | 20.79109 | -102.22799 | 23652 ft | 269 kts | 273° |
| 2026-04-24 02:02 | 20.79161 | -102.24799 | 23328 ft | 269 kts | 273° |
| 2026-04-24 02:02 | 20.79204 | -102.26797 | 22932 ft | 268 kts | 271° |
| 2026-04-24 02:02 | 20.78824 | -102.28741 | 22554 ft | 271 kts | 249° |
| 2026-04-24 02:03 | 20.76631 | -102.32051 | 21681 ft | 276 kts | 235° |
| 2026-04-24 02:03 | 20.75440 | -102.33672 | 21192 ft | 278 kts | 235° |
| 2026-04-24 02:03 | 20.74261 | -102.35308 | 20708 ft | 278 kts | 236° |
| 2026-04-24 02:04 | 20.73078 | -102.36957 | 20228 ft | 281 kts | 236° |
| 2026-04-24 02:04 | 20.71882 | -102.38612 | 19760 ft | 282 kts | 235° |
| 2026-04-24 02:04 | 20.70683 | -102.40266 | 19305 ft | 282 kts | 235° |
| 2026-04-24 02:04 | 20.69465 | -102.41948 | 18843 ft | 281 kts | 235° |
| 2026-04-24 02:05 | 20.68293 | -102.43595 | 18401 ft | 277 kts | 238° |
| 2026-04-24 02:05 | 20.67361 | -102.45383 | 17973 ft | 276 kts | 247° |
| 2026-04-24 02:05 | 20.66576 | -102.47227 | 17574 ft | 281 kts | 249° |
| 2026-04-24 02:05 | 20.66003 | -102.48526 | 17304 ft | 286 kts | 246° |
| 2026-04-24 02:06 | 20.65075 | -102.50409 | 16986 ft | 286 kts | 244° |
| 2026-04-24 02:06 | 20.63830 | -102.52878 | 16587 ft | 285 kts | 245° |
| 2026-04-24 02:06 | 20.62920 | -102.54750 | 16297 ft | 284 kts | 245° |
| 2026-04-24 02:06 | 20.62015 | -102.56620 | 16003 ft | 283 kts | 245° |
| 2026-04-24 02:07 | 20.61104 | -102.58478 | 15718 ft | 282 kts | 244° |
| 2026-04-24 02:07 | 20.60192 | -102.60330 | 15429 ft | 281 kts | 244° |
| 2026-04-24 02:07 | 20.59285 | -102.62178 | 15145 ft | 281 kts | 244° |
| 2026-04-24 02:07 | 20.58381 | -102.64019 | 14865 ft | 279 kts | 245° |
| 2026-04-24 02:08 | 20.57483 | -102.65847 | 14592 ft | 278 kts | 244° |
| 2026-04-24 02:08 | 20.56587 | -102.67673 | 14330 ft | 277 kts | 244° |
| 2026-04-24 02:08 | 20.55699 | -102.69480 | 14096 ft | 272 kts | 244° |
| 2026-04-24 02:08 | 20.54830 | -102.71246 | 13872 ft | 265 kts | 244° |
| 2026-04-24 02:09 | 20.53978 | -102.72979 | 13648 ft | 263 kts | 244° |
| 2026-04-24 02:09 | 20.53132 | -102.74700 | 13394 ft | 261 kts | 244° |
| 2026-04-24 02:09 | 20.52289 | -102.76414 | 13146 ft | 261 kts | 244° |
| 2026-04-24 02:09 | 20.51449 | -102.78122 | 12894 ft | 259 kts | 244° |
| 2026-04-24 02:10 | 20.50612 | -102.79821 | 12695 ft | 257 kts | 244° |
| 2026-04-24 02:10 | 20.49794 | -102.81481 | 12691 ft | 250 kts | 244° |
| 2026-04-24 02:10 | 20.48984 | -102.83125 | 12430 ft | 252 kts | 244° |
| 2026-04-24 02:10 | 20.48166 | -102.84789 | 12136 ft | 254 kts | 244° |
| 2026-04-24 02:11 | 20.47342 | -102.86460 | 11850 ft | 255 kts | 244° |
| 2026-04-24 02:11 | 20.46515 | -102.88137 | 11567 ft | 256 kts | 244° |
| 2026-04-24 02:11 | 20.45966 | -102.89250 | 11370 ft | 256 kts | 244° |
| 2026-04-24 02:11 | 20.44861 | -102.91491 | 10992 ft | 255 kts | 244° |
| 2026-04-24 02:12 | 20.44316 | -102.92596 | 10806 ft | 252 kts | 244° |
| 2026-04-24 02:12 | 20.43506 | -102.94236 | 10400 ft | 249 kts | 244° |
| 2026-04-24 02:12 | 20.42705 | -102.95856 | 10006 ft | 246 kts | 244° |
| 2026-04-24 02:12 | 20.41913 | -102.97460 | 9603 ft | 244 kts | 244° |
| 2026-04-24 02:13 | 20.41126 | -102.99055 | 9170 ft | 242 kts | 244° |
| 2026-04-24 02:13 | 20.40411 | -103.00660 | 8782 ft | 236 kts | 255° |
| 2026-04-24 02:13 | 20.40274 | -103.02330 | 8782 ft | 221 kts | 277° |
| 2026-04-24 02:13 | 20.40697 | -103.03874 | 8798 ft | 216 kts | 292° |
| 2026-04-24 02:14 | 20.41352 | -103.05316 | 8820 ft | 218 kts | 295° |
| 2026-04-24 02:14 | 20.42003 | -103.06792 | 8834 ft | 220 kts | 293° |
| 2026-04-24 02:14 | 20.42617 | -103.08296 | 8658 ft | 222 kts | 293° |
| 2026-04-24 02:14 | 20.43253 | -103.09793 | 8410 ft | 222 kts | 294° |
| 2026-04-24 02:15 | 20.43879 | -103.11295 | 8161 ft | 221 kts | 293° |
| 2026-04-24 02:15 | 20.44499 | -103.12780 | 7917 ft | 218 kts | 294° |
| 2026-04-24 02:15 | 20.45116 | -103.14241 | 7682 ft | 215 kts | 294° |
| 2026-04-24 02:15 | 20.45721 | -103.15684 | 7449 ft | 205 kts | 294° |
| 2026-04-24 02:16 | 20.46266 | -103.16988 | 7243 ft | 182 kts | 293° |
| 2026-04-24 02:16 | 20.46773 | -103.18211 | 7051 ft | 178 kts | 294° |
| 2026-04-24 02:16 | 20.47253 | -103.19359 | 6872 ft | 163 kts | 294° |
| 2026-04-24 02:16 | 20.47699 | -103.20421 | 6704 ft | 151 kts | 295° |
| 2026-04-24 02:17 | 20.48105 | -103.21385 | 6559 ft | 133 kts | 295° |
| 2026-04-24 02:17 | 20.48467 | -103.22248 | 6419 ft | 123 kts | 295° |
| 2026-04-24 02:17 | 20.48807 | -103.23059 | 6305 ft | 117 kts | 295° |
| 2026-04-24 02:17 | 20.49116 | -103.23800 | 6213 ft | 102 kts | 294° |
| 2026-04-24 02:18 | 20.49396 | -103.24473 | 6112 ft | 98 kts | 293° |
| 2026-04-24 02:18 | 20.49668 | -103.25141 | 5985 ft | 99 kts | 292° |
| 2026-04-24 02:18 | 20.49949 | -103.25801 | 5874 ft | 98 kts | 292° |
| 2026-04-24 02:18 | 20.50222 | -103.26457 | 5738 ft | 97 kts | 291° |
| 2026-04-24 02:19 | 20.50511 | -103.27107 | 5564 ft | 97 kts | 291° |
| 2026-04-24 02:19 | 20.50774 | -103.27757 | 5414 ft | 94 kts | 290° |
| 2026-04-24 02:19 | 20.51034 | -103.28365 | 5266 ft | 85 kts | 290° |
| 2026-04-24 02:19 | 20.51267 | -103.28935 | 5136 ft | 82 kts | 291° |
| 2026-04-24 02:20 | 20.51496 | -103.29476 | 5036 ft | 78 kts | 292° |
| 2026-04-24 02:20 | 20.51683 | -103.29938 | 5025 ft | 57 kts | 293° |
| 2026-04-24 02:20 | 20.51825 | -103.30263 | 5024 ft | 38 kts | 294° |
| 2026-04-24 02:20 | 20.51911 | -103.30471 | 5025 ft | 26 kts | 295° |
| 2026-04-24 02:21 | 20.51974 | -103.30625 | 5024 ft | 20 kts | 290° |
| 2026-04-24 02:21 | 20.51962 | -103.30712 | 5025 ft | 11 kts | 202° |
| 2026-04-24 02:21 | 20.51894 | -103.30744 | 5025 ft | 11 kts | 204° |
| 2026-04-24 02:21 | 20.51859 | -103.30805 | 5026 ft | 12 kts | 287° |
| 2026-04-24 02:22 | 20.51896 | -103.30900 | 5026 ft | 16 kts | 294° |
| 2026-04-24 02:22 | 20.51943 | -103.31010 | 5026 ft | 18 kts | 293° |
| 2026-04-24 02:22 | 20.51991 | -103.31126 | 5026 ft | 16 kts | 294° |
| 2026-04-24 02:22 | 20.52033 | -103.31225 | 5026 ft | 14 kts | 295° |
| 2026-04-24 02:23 | 20.52071 | -103.31315 | 5026 ft | 14 kts | 290° |
| 2026-04-24 02:23 | 20.52018 | -103.31389 | 5026 ft | 15 kts | 213° |
| 2026-04-24 02:23 | 20.51913 | -103.31452 | 5026 ft | 19 kts | 211° |
| 2026-04-24 02:23 | 20.51805 | -103.31515 | 5025 ft | 12 kts | 206° |
| 2026-04-24 02:24 | 20.51792 | -103.31565 | 5025 ft | 10 kts | 298° |
| 2026-04-24 02:24 | 20.51797 | -103.31574 | 5025 ft | 0 kts | 297° |